Time;durP1;ratioP1;P1;durP2;ratioP2;P2;SDS_P1;SDS_P2;PMS_P1;PMS_P2;Temp;Humidity;BMP_temperature;BMP_pressure;BME280_temperature;BME280_humidity;BME280_pressure;Samples;Min_cycle;Max_cycle;Signal;HPM_P1;HPM_P2
2021/12/28 00:00:43;;;;;;;57.00;7.60;;;10.10;99.90;;;;;;5074325;28;20206;-64
2021/12/28 00:03:12;;;;;;;44.00;9.07;;;10.20;99.90;;;;;;5084447;28;20191;-64
2021/12/28 00:05:41;;;;;;;42.13;8.30;;;10.20;99.90;;;;;;5078139;28;20242;-64
2021/12/28 00:08:09;;;;;;;47.40;8.87;;;10.20;99.90;;;;;;5082964;28;20238;-64
2021/12/28 00:10:39;;;;;;;51.47;8.73;;;10.20;99.90;;;;;;5073581;28;20196;-64
2021/12/28 00:13:08;;;;;;;57.03;8.87;;;10.20;99.90;;;;;;5070306;28;20295;-64
2021/12/28 00:15:48;;;;;;;40.63;7.80;;;10.20;99.90;;;;;;5071600;28;20228;-64
2021/12/28 00:18:17;;;;;;;46.93;8.20;;;10.20;99.90;;;;;;5078405;28;20222;-64
2021/12/28 00:20:48;;;;;;;45.20;8.40;;;10.20;99.90;;;;;;5073988;28;20208;-64
2021/12/28 00:23:19;;;;;;;50.67;8.30;;;10.20;99.90;;;;;;5075253;28;20215;-64
2021/12/28 00:25:51;;;;;;;52.43;7.90;;;10.20;99.90;;;;;;5082872;28;20222;-64
2021/12/28 00:28:20;;;;;;;49.63;8.73;;;10.20;99.90;;;;;;5066829;28;20215;-64
2021/12/28 00:30:50;;;;;;;50.17;8.70;;;10.20;99.90;;;;;;5072515;28;20187;-64
2021/12/28 00:33:22;;;;;;;50.00;8.97;;;10.20;99.90;;;;;;5073393;28;20619;-64
2021/12/28 00:35:51;;;;;;;49.77;7.73;;;10.10;99.90;;;;;;5072503;28;20253;-63
2021/12/28 00:38:22;;;;;;;45.90;8.20;;;10.10;99.90;;;;;;5078292;28;20193;-64
2021/12/28 00:40:54;;;;;;;50.47;8.80;;;10.10;99.90;;;;;;5076209;28;20192;-64
2021/12/28 00:43:22;;;;;;;57.50;9.60;;;10.10;99.90;;;;;;5079366;28;20202;-63
2021/12/28 00:45:51;;;;;;;49.10;9.33;;;10.10;99.90;;;;;;5079617;28;20196;-64
2021/12/28 00:48:19;;;;;;;56.90;9.33;;;10.00;99.90;;;;;;5081496;28;20207;-63
2021/12/28 00:50:49;;;;;;;50.97;8.07;;;10.00;99.90;;;;;;5077928;28;20203;-63
2021/12/28 00:53:18;;;;;;;55.03;9.03;;;10.00;99.90;;;;;;5076356;28;20289;-63
2021/12/28 00:55:46;;;;;;;57.60;10.20;;;10.00;99.90;;;;;;5077635;28;20290;-63
2021/12/28 00:58:16;;;;;;;59.43;8.73;;;10.00;99.90;;;;;;5073504;28;20180;-63
2021/12/28 01:00:45;;;;;;;59.30;9.37;;;10.00;99.90;;;;;;5086686;27;20329;-64
2021/12/28 01:03:15;;;;;;;52.67;7.67;;;10.00;99.90;;;;;;5083370;28;20249;-64
2021/12/28 01:05:45;;;;;;;50.90;8.10;;;10.00;99.90;;;;;;5065869;28;20218;-63
2021/12/28 01:08:15;;;;;;;47.63;7.60;;;10.00;99.90;;;;;;5092465;28;20200;-63
2021/12/28 01:10:46;;;;;;;52.47;8.00;;;10.00;99.90;;;;;;5081333;28;20547;-64
2021/12/28 01:13:17;;;;;;;60.80;8.30;;;9.90;99.90;;;;;;5084533;28;20279;-64
2021/12/28 01:15:46;;;;;;;62.27;8.40;;;9.90;99.90;;;;;;5093342;28;20228;-64
2021/12/28 01:18:15;;;;;;;50.87;7.13;;;9.90;99.90;;;;;;5077654;28;20245;-63
2021/12/28 01:20:44;;;;;;;40.60;7.97;;;9.90;99.90;;;;;;5084668;28;20559;-64
2021/12/28 01:23:13;;;;;;;43.87;6.93;;;9.90;99.90;;;;;;5078998;28;20199;-64
2021/12/28 01:25:42;;;;;;;52.00;7.30;;;9.90;99.90;;;;;;5079100;28;20633;-64
2021/12/28 01:28:12;;;;;;;51.90;7.80;;;9.90;99.90;;;;;;5075744;28;20187;-63
2021/12/28 01:30:42;;;;;;;38.33;6.17;;;9.90;99.90;;;;;;5076987;28;20737;-64
2021/12/28 01:33:10;;;;;;;56.10;6.80;;;9.90;99.90;;;;;;5080546;28;20253;-64
2021/12/28 01:35:39;;;;;;;51.50;6.90;;;9.90;99.90;;;;;;5077387;28;20889;-63
2021/12/28 01:38:09;;;;;;;46.23;7.40;;;9.90;99.90;;;;;;5077564;28;20191;-64
2021/12/28 01:40:41;;;;;;;45.67;6.90;;;9.90;99.90;;;;;;5078174;28;20562;-64
2021/12/28 01:43:12;;;;;;;36.50;5.63;;;9.90;99.90;;;;;;5070157;28;20203;-63
2021/12/28 01:45:48;;;;;;;40.00;7.23;;;9.90;99.90;;;;;;5078478;28;20566;-63
2021/12/28 01:48:19;;;;;;;44.57;6.13;;;9.90;99.90;;;;;;5072105;28;20212;-63
2021/12/28 01:50:49;;;;;;;36.73;6.00;;;9.90;99.90;;;;;;5080336;28;20275;-65
2021/12/28 01:53:18;;;;;;;31.33;6.47;;;9.90;99.90;;;;;;5077982;28;20187;-63
2021/12/28 01:55:50;;;;;;;37.33;6.13;;;9.90;99.90;;;;;;5076955;28;20678;-64
2021/12/28 01:58:19;;;;;;;38.43;6.73;;;9.90;99.90;;;;;;5074408;28;20559;-63
2021/12/28 02:00:51;;;;;;;30.00;6.63;;;9.90;99.90;;;;;;5074693;28;20861;-64
2021/12/28 02:03:24;;;;;;;45.17;6.77;;;9.90;99.90;;;;;;5082716;28;20192;-63
2021/12/28 02:05:53;;;;;;;36.03;6.97;;;9.90;99.90;;;;;;5081626;28;20571;-64
2021/12/28 02:08:22;;;;;;;37.43;6.90;;;9.90;99.90;;;;;;5076638;28;20200;-64
2021/12/28 02:10:52;;;;;;;35.03;7.93;;;9.90;99.90;;;;;;5080297;28;20648;-64
2021/12/28 02:13:22;;;;;;;31.10;7.10;;;9.90;99.90;;;;;;5074811;28;20191;-63
2021/12/28 02:15:57;;;;;;;35.37;7.43;;;9.90;99.90;;;;;;5074995;28;20281;-64
2021/12/28 02:18:27;;;;;;;40.93;7.60;;;9.90;99.90;;;;;;5074774;28;20191;-64
2021/12/28 02:21:00;;;;;;;31.03;7.07;;;9.90;99.90;;;;;;5079808;28;20677;-64
2021/12/28 02:23:29;;;;;;;31.40;7.10;;;9.90;99.90;;;;;;5077012;28;20204;-64
2021/12/28 02:25:58;;;;;;;40.20;7.63;;;9.90;99.90;;;;;;5081037;28;20263;-64
2021/12/28 02:28:26;;;;;;;32.40;6.90;;;9.90;99.90;;;;;;5077642;28;20669;-64
2021/12/28 02:30:57;;;;;;;38.10;6.57;;;9.90;99.90;;;;;;5076916;28;20220;-64
2021/12/28 02:33:27;;;;;;;26.37;6.00;;;9.90;99.90;;;;;;5076818;28;20689;-64
2021/12/28 02:36:01;;;;;;;34.83;6.50;;;9.90;99.90;;;;;;5085736;28;20188;-64
2021/12/28 02:38:30;;;;;;;30.00;6.30;;;9.90;99.90;;;;;;5070326;28;20210;-64
2021/12/28 02:40:59;;;;;;;29.43;6.50;;;9.90;99.90;;;;;;5074979;28;20207;-63
2021/12/28 02:43:28;;;;;;;38.37;7.10;;;9.80;99.90;;;;;;5074287;28;20219;-64
2021/12/28 02:45:58;;;;;;;29.07;6.33;;;9.80;99.90;;;;;;5078379;28;20195;-64
2021/12/28 02:48:28;;;;;;;32.33;6.63;;;9.80;99.90;;;;;;5078460;28;20832;-64
2021/12/28 02:51:00;;;;;;;30.60;6.73;;;9.80;99.90;;;;;;5080712;28;20220;-64
2021/12/28 02:53:29;;;;;;;34.43;5.80;;;9.80;99.90;;;;;;5074781;28;20700;-64
2021/12/28 02:55:58;;;;;;;39.50;6.40;;;9.80;99.90;;;;;;5077819;28;20215;-64
2021/12/28 02:58:33;;;;;;;26.20;5.90;;;9.80;99.90;;;;;;5057698;28;20856;-64
2021/12/28 03:01:06;;;;;;;32.87;5.80;;;9.80;99.90;;;;;;5074976;28;20262;-64
2021/12/28 03:03:35;;;;;;;24.97;5.77;;;9.80;99.90;;;;;;5070802;28;20227;-64
2021/12/28 03:06:07;;;;;;;33.93;5.53;;;9.90;99.90;;;;;;5076570;28;20680;-64
2021/12/28 03:08:40;;;;;;;26.40;5.33;;;9.80;99.90;;;;;;5079390;28;20600;-64
2021/12/28 03:11:09;;;;;;;35.37;5.77;;;9.80;99.90;;;;;;5069431;28;20223;-64
2021/12/28 03:13:40;;;;;;;29.23;5.90;;;9.80;99.90;;;;;;5078522;28;20212;-64
2021/12/28 03:16:10;;;;;;;20.80;5.10;;;9.80;99.90;;;;;;5068822;28;20262;-64
2021/12/28 03:18:39;;;;;;;23.73;5.03;;;9.80;99.90;;;;;;5078569;28;20199;-64
2021/12/28 03:21:12;;;;;;;26.57;6.07;;;9.80;99.90;;;;;;5076867;28;20195;-64
2021/12/28 03:23:42;;;;;;;31.03;5.40;;;9.80;99.90;;;;;;5077455;28;20289;-63
2021/12/28 03:26:11;;;;;;;16.03;4.83;;;9.80;99.90;;;;;;5070460;28;20211;-64
2021/12/28 03:28:42;;;;;;;24.97;4.87;;;9.80;99.90;;;;;;5072623;28;20200;-64
2021/12/28 03:31:14;;;;;;;17.57;4.37;;;9.90;99.90;;;;;;5075395;28;20222;-64
2021/12/28 03:33:44;;;;;;;16.53;4.70;;;9.90;99.90;;;;;;5070594;28;20199;-64
2021/12/28 03:36:19;;;;;;;22.53;4.70;;;9.90;99.90;;;;;;5072359;28;20195;-64
2021/12/28 03:38:48;;;;;;;31.57;4.90;;;9.90;99.90;;;;;;5075859;28;20241;-64
2021/12/28 03:41:18;;;;;;;27.67;5.00;;;9.90;99.90;;;;;;5073311;28;20192;-64
2021/12/28 03:43:50;;;;;;;17.57;3.70;;;9.90;99.90;;;;;;5072235;28;20230;-64
2021/12/28 03:46:20;;;;;;;18.20;3.73;;;9.90;99.90;;;;;;5075599;28;20275;-63
2021/12/28 03:48:51;;;;;;;20.63;3.83;;;9.90;99.90;;;;;;5070167;28;20188;-64
2021/12/28 03:51:22;;;;;;;18.37;4.00;;;9.90;99.90;;;;;;5080171;28;20231;-63
2021/12/28 03:53:50;;;;;;;20.13;3.60;;;9.90;99.90;;;;;;5061316;28;20834;-64
2021/12/28 03:56:19;;;;;;;24.67;4.67;;;9.80;99.90;;;;;;5079264;28;20335;-64
2021/12/28 03:58:48;;;;;;;16.40;3.60;;;9.80;99.90;;;;;;5072268;28;20196;-64
2021/12/28 04:01:20;;;;;;;16.00;3.47;;;9.80;99.90;;;;;;5073531;28;20194;-64
2021/12/28 04:03:49;;;;;;;17.13;4.57;;;9.90;99.90;;;;;;5075663;28;20281;-64
2021/12/28 04:06:20;;;;;;;19.33;3.27;;;9.90;99.90;;;;;;5068177;28;20249;-64
2021/12/28 04:08:51;;;;;;;12.30;3.20;;;9.90;99.90;;;;;;5076562;28;20197;-64
2021/12/28 04:11:28;;;;;;;21.43;3.30;;;9.80;99.90;;;;;;5075124;28;20269;-64
2021/12/28 04:14:01;;;;;;;14.03;3.70;;;9.80;99.90;;;;;;5088260;28;20744;-64
2021/12/28 04:16:30;;;;;;;17.73;3.33;;;9.80;99.90;;;;;;5076843;28;20199;-64
2021/12/28 04:19:00;;;;;;;20.80;3.60;;;9.80;99.90;;;;;;5073886;28;20188;-64
2021/12/28 04:21:29;;;;;;;18.27;3.53;;;9.80;99.90;;;;;;5073658;28;20180;-64
2021/12/28 04:23:59;;;;;;;14.70;3.33;;;9.80;99.90;;;;;;5074338;28;20256;-64
2021/12/28 04:26:29;;;;;;;20.77;3.60;;;9.80;99.90;;;;;;5076113;28;21590;-64
2021/12/28 04:28:57;;;;;;;14.17;3.33;;;9.80;99.90;;;;;;5066605;28;20192;-64
2021/12/28 04:31:26;;;;;;;12.10;2.83;;;9.80;99.90;;;;;;5072443;28;20215;-64
2021/12/28 04:33:55;;;;;;;14.70;3.20;;;9.80;99.90;;;;;;5077174;28;20269;-64
2021/12/28 04:36:30;;;;;;;15.30;3.73;;;9.80;99.90;;;;;;5075800;28;20252;-64
2021/12/28 04:39:00;;;;;;;16.83;3.20;;;9.80;99.90;;;;;;5075583;28;20229;-64
2021/12/28 04:41:28;;;;;;;10.53;3.43;;;9.80;99.90;;;;;;5082148;28;20191;-64
2021/12/28 04:43:59;;;;;;;14.33;3.13;;;9.80;99.90;;;;;;5083597;28;20195;-64
2021/12/28 04:46:28;;;;;;;14.77;3.27;;;9.80;99.90;;;;;;5071540;28;20200;-64
2021/12/28 04:48:58;;;;;;;16.80;4.03;;;9.80;99.90;;;;;;5075047;28;20198;-64
2021/12/28 04:51:26;;;;;;;16.53;3.57;;;9.80;99.90;;;;;;5079963;28;20298;-64
2021/12/28 04:53:56;;;;;;;16.03;3.53;;;9.80;99.90;;;;;;5072350;28;20249;-64
2021/12/28 04:56:27;;;;;;;18.17;3.30;;;9.80;99.90;;;;;;5073261;28;20196;-64
2021/12/28 04:58:55;;;;;;;16.43;3.50;;;9.80;99.90;;;;;;5075526;28;20196;-64
2021/12/28 05:01:24;;;;;;;22.03;3.37;;;9.80;99.90;;;;;;5072363;28;20195;-64
2021/12/28 05:03:53;;;;;;;14.83;3.87;;;9.70;99.90;;;;;;5073359;28;20204;-64
2021/12/28 05:06:21;;;;;;;14.03;3.40;;;9.80;99.90;;;;;;5075209;28;20192;-64
2021/12/28 05:08:50;;;;;;;9.80;3.17;;;9.80;99.90;;;;;;5074548;28;20221;-64
2021/12/28 05:11:18;;;;;;;11.63;3.07;;;9.80;99.90;;;;;;5072158;28;20216;-64
2021/12/28 05:13:48;;;;;;;10.77;2.97;;;9.70;99.90;;;;;;5069013;28;20201;-64
2021/12/28 05:16:17;;;;;;;7.30;3.33;;;9.80;99.90;;;;;;5072855;28;20226;-64
2021/12/28 05:18:46;;;;;;;11.10;3.20;;;9.80;99.90;;;;;;5072397;28;20199;-64
2021/12/28 05:21:15;;;;;;;12.13;3.30;;;9.80;99.90;;;;;;5071550;28;20195;-63
2021/12/28 05:23:43;;;;;;;8.73;2.87;;;9.80;99.90;;;;;;5074977;28;20196;-64
2021/12/28 05:26:12;;;;;;;12.70;3.13;;;9.80;99.90;;;;;;5084635;28;21409;-64
2021/12/28 05:28:41;;;;;;;15.00;3.50;;;9.80;99.90;;;;;;5071152;28;20211;-64
2021/12/28 05:31:11;;;;;;;12.20;3.50;;;9.70;99.90;;;;;;5071520;28;20220;-64
2021/12/28 05:33:41;;;;;;;10.37;3.53;;;9.80;99.90;;;;;;5078672;28;20298;-63
2021/12/28 05:36:10;;;;;;;9.50;3.57;;;9.80;99.90;;;;;;5075718;28;20212;-63
2021/12/28 05:38:39;;;;;;;11.27;3.73;;;9.80;99.90;;;;;;5077323;28;20847;-64
2021/12/28 05:41:07;;;;;;;9.50;3.57;;;9.80;99.90;;;;;;5079296;28;20195;-64
2021/12/28 05:43:36;;;;;;;12.40;3.60;;;9.80;99.90;;;;;;5078504;28;20256;-64
2021/12/28 05:46:04;;;;;;;9.77;3.77;;;9.80;99.90;;;;;;5092476;28;20283;-64
2021/12/28 05:48:34;;;;;;;10.90;4.17;;;9.80;99.90;;;;;;5093066;28;20279;-64
2021/12/28 05:51:03;;;;;;;9.73;4.30;;;9.80;99.90;;;;;;5078010;28;20385;-64
2021/12/28 05:53:31;;;;;;;11.57;4.33;;;9.80;99.90;;;;;;5082625;28;20219;-64
2021/12/28 05:56:00;;;;;;;9.50;4.20;;;9.80;99.90;;;;;;5071887;28;20257;-64
2021/12/28 05:58:28;;;;;;;6.20;3.67;;;9.80;99.90;;;;;;5079189;28;20200;-64
2021/12/28 06:00:57;;;;;;;11.37;4.07;;;9.80;99.90;;;;;;5074773;28;20287;-64
2021/12/28 06:03:25;;;;;;;8.37;4.20;;;9.80;99.90;;;;;;5077474;28;20202;-64
2021/12/28 06:05:55;;;;;;;9.40;4.40;;;9.90;99.90;;;;;;5089454;27;20203;-64
2021/12/28 06:08:24;;;;;;;11.20;3.83;;;9.80;99.90;;;;;;5082947;28;20560;-64
2021/12/28 06:11:00;;;;;;;6.77;4.10;;;9.90;99.90;;;;;;5072338;28;20210;-64
2021/12/28 06:13:28;;;;;;;9.63;4.53;;;9.90;99.90;;;;;;5077494;28;20563;-64
2021/12/28 06:15:57;;;;;;;13.40;4.60;;;9.80;99.90;;;;;;5078386;28;20231;-64
2021/12/28 06:18:27;;;;;;;11.27;4.13;;;9.80;99.90;;;;;;5073838;28;20208;-65
2021/12/28 06:20:56;;;;;;;8.83;4.30;;;9.80;99.90;;;;;;5077238;28;21322;-64
2021/12/28 06:23:25;;;;;;;6.23;4.20;;;9.90;99.90;;;;;;5071866;28;20320;-64
2021/12/28 06:25:54;;;;;;;9.10;4.17;;;9.90;99.90;;;;;;5076934;28;20229;-64
2021/12/28 06:28:23;;;;;;;7.00;3.80;;;9.90;99.90;;;;;;5089847;28;20203;-64
2021/12/28 06:30:53;;;;;;;10.13;4.80;;;9.90;99.90;;;;;;5075590;28;20321;-64
2021/12/28 06:33:26;;;;;;;8.83;4.40;;;9.90;99.90;;;;;;5078009;28;20199;-64
2021/12/28 06:35:56;;;;;;;6.57;4.00;;;9.90;99.90;;;;;;5073292;28;20282;-64
2021/12/28 06:38:24;;;;;;;8.33;4.67;;;9.90;99.90;;;;;;5071276;28;20224;-64
2021/12/28 06:40:53;;;;;;;4.43;4.00;;;9.90;99.90;;;;;;5088725;28;20331;-64
2021/12/28 06:43:22;;;;;;;8.87;4.90;;;9.80;99.90;;;;;;5077963;28;20199;-63
2021/12/28 06:45:51;;;;;;;7.67;4.20;;;9.90;99.90;;;;;;5074462;28;20204;-64
2021/12/28 06:48:20;;;;;;;5.43;4.90;;;9.90;99.90;;;;;;5075448;28;20219;-63
2021/12/28 06:50:49;;;;;;;9.17;5.30;;;10.00;99.90;;;;;;5074758;28;20196;-64
2021/12/28 06:53:20;;;;;;;9.67;6.27;;;10.00;99.90;;;;;;5080407;28;20219;-64
2021/12/28 06:55:49;;;;;;;11.10;6.27;;;10.00;99.90;;;;;;5075337;28;20199;-64
2021/12/28 06:58:17;;;;;;;9.80;5.10;;;10.00;99.90;;;;;;5077758;28;20194;-64
2021/12/28 07:00:46;;;;;;;7.17;6.00;;;10.00;99.90;;;;;;5077066;28;20242;-64
2021/12/28 07:03:15;;;;;;;8.70;5.23;;;10.00;99.90;;;;;;5075077;28;20846;-64
2021/12/28 07:05:44;;;;;;;6.97;5.07;;;10.00;99.90;;;;;;5075857;28;20212;-64
2021/12/28 07:08:12;;;;;;;6.00;5.17;;;10.00;99.90;;;;;;5071152;28;20549;-64
2021/12/28 07:10:42;;;;;;;6.90;4.90;;;10.00;99.90;;;;;;5070412;28;20202;-64
2021/12/28 07:13:11;;;;;;;9.90;5.27;;;10.00;99.90;;;;;;5067748;28;20264;-64
2021/12/28 07:15:39;;;;;;;6.00;5.03;;;10.10;99.90;;;;;;5080579;28;20659;-64
2021/12/28 07:18:08;;;;;;;11.50;6.07;;;10.00;99.90;;;;;;5071963;28;20241;-64
2021/12/28 07:20:37;;;;;;;6.77;5.40;;;10.10;99.90;;;;;;5091424;28;20222;-64
2021/12/28 07:23:05;;;;;;;11.97;5.80;;;10.10;99.90;;;;;;5073729;28;20356;-64
2021/12/28 07:25:34;;;;;;;7.27;5.90;;;10.00;99.90;;;;;;5076751;28;20227;-64
2021/12/28 07:28:08;;;;;;;7.00;5.23;;;10.00;99.90;;;;;;5074894;28;20651;-64
2021/12/28 07:30:37;;;;;;;8.53;5.37;;;10.00;99.90;;;;;;5086574;28;20198;-65
2021/12/28 07:33:06;;;;;;;12.00;5.70;;;10.10;99.90;;;;;;5073883;28;20308;-64
2021/12/28 07:35:34;;;;;;;7.37;5.23;;;10.10;99.90;;;;;;5077829;28;20218;-64
2021/12/28 07:38:03;;;;;;;8.47;5.60;;;10.10;99.90;;;;;;5070961;28;20198;-63
2021/12/28 07:40:32;;;;;;;5.93;5.07;;;10.10;99.90;;;;;;5077779;28;20641;-64
2021/12/28 07:43:01;;;;;;;7.27;5.03;;;10.10;99.90;;;;;;5074698;28;21154;-64
2021/12/28 07:45:31;;;;;;;6.47;5.23;;;10.10;99.90;;;;;;5090850;28;20184;-63
2021/12/28 07:47:59;;;;;;;8.03;5.90;;;10.10;99.90;;;;;;5075080;28;20817;-64
2021/12/28 07:50:28;;;;;;;9.03;5.47;;;10.10;99.90;;;;;;5078671;28;20262;-64
2021/12/28 07:52:56;;;;;;;9.00;5.47;;;10.10;99.90;;;;;;5075313;28;20195;-64
2021/12/28 07:55:25;;;;;;;7.70;6.00;;;10.10;99.90;;;;;;5077137;28;20199;-64
2021/12/28 07:57:53;;;;;;;7.47;5.80;;;10.10;99.90;;;;;;5068951;28;20234;-64
2021/12/28 08:00:24;;;;;;;9.43;5.87;;;10.10;99.90;;;;;;5069010;28;20540;-64
2021/12/28 08:02:55;;;;;;;7.60;5.53;;;10.10;99.90;;;;;;5076506;28;20191;-64
2021/12/28 08:05:23;;;;;;;6.80;5.30;;;10.10;99.90;;;;;;5074053;28;20446;-64
2021/12/28 08:07:52;;;;;;;6.77;5.10;;;10.20;99.90;;;;;;5070577;28;20803;-64
2021/12/28 08:10:21;;;;;;;4.90;4.50;;;10.10;99.90;;;;;;5081284;28;20198;-63
2021/12/28 08:12:51;;;;;;;6.30;4.70;;;10.10;99.90;;;;;;5076992;28;20212;-64
2021/12/28 08:15:20;;;;;;;6.23;5.57;;;10.10;99.90;;;;;;5076514;28;20231;-64
2021/12/28 08:17:48;;;;;;;6.43;5.30;;;10.10;99.90;;;;;;5071503;28;20224;-64
2021/12/28 08:20:19;;;;;;;6.20;5.60;;;10.10;99.90;;;;;;5077780;28;20387;-64
2021/12/28 08:22:50;;;;;;;6.27;5.50;;;10.10;99.90;;;;;;5076852;28;20226;-64
2021/12/28 08:25:20;;;;;;;11.93;6.23;;;10.10;99.90;;;;;;5091470;28;20287;-63
2021/12/28 08:27:49;;;;;;;9.70;7.03;;;10.20;99.90;;;;;;5070304;28;21376;-64
2021/12/28 08:30:20;;;;;;;12.23;7.40;;;10.20;99.90;;;;;;5073451;28;20658;-64
2021/12/28 08:32:49;;;;;;;14.20;8.03;;;10.20;99.90;;;;;;5070996;28;20227;-64
2021/12/28 08:35:20;;;;;;;12.73;7.10;;;10.20;99.90;;;;;;5071956;28;20188;-63
2021/12/28 08:37:48;;;;;;;9.30;6.83;;;10.20;99.90;;;;;;5071793;28;20196;-64
2021/12/28 08:40:17;;;;;;;11.73;6.93;;;10.30;99.90;;;;;;5071583;28;20658;-63
2021/12/28 08:42:46;;;;;;;13.33;6.20;;;10.30;99.90;;;;;;5073904;28;20927;-63
2021/12/28 08:45:14;;;;;;;12.10;6.03;;;10.20;99.90;;;;;;5075260;28;20196;-64
2021/12/28 08:47:43;;;;;;;9.83;5.77;;;10.30;99.90;;;;;;5071994;28;20234;-64
2021/12/28 08:50:12;;;;;;;8.17;5.10;;;10.30;99.90;;;;;;5076293;28;20559;-64
2021/12/28 08:52:42;;;;;;;10.10;4.30;;;10.30;99.90;;;;;;5071678;28;20273;-63
2021/12/28 08:55:19;;;;;;;5.27;4.07;;;10.30;99.90;;;;;;5072321;28;20708;-64
2021/12/28 08:57:47;;;;;;;5.40;3.90;;;10.30;99.90;;;;;;5074263;28;20208;-63
2021/12/28 09:00:18;;;;;;;6.63;3.60;;;10.30;99.90;;;;;;5074549;28;20267;-64
2021/12/28 09:02:47;;;;;;;6.03;3.50;;;10.40;99.90;;;;;;5074219;28;20731;-64
2021/12/28 09:05:16;;;;;;;9.00;3.43;;;10.40;99.90;;;;;;5083697;28;20206;-64
2021/12/28 09:07:46;;;;;;;6.40;3.13;;;10.40;99.90;;;;;;5078077;28;20705;-64
2021/12/28 09:10:15;;;;;;;7.30;3.13;;;10.50;99.90;;;;;;5080668;28;20690;-64
2021/12/28 09:12:44;;;;;;;7.97;2.80;;;10.50;99.90;;;;;;5077323;28;20257;-64
2021/12/28 09:15:13;;;;;;;8.53;2.80;;;10.50;99.90;;;;;;5076721;28;20235;-64
2021/12/28 09:17:43;;;;;;;8.00;2.77;;;10.50;99.90;;;;;;5081986;28;20199;-64
2021/12/28 09:20:14;;;;;;;6.03;3.20;;;10.50;99.90;;;;;;5084061;28;20192;-64
2021/12/28 09:23:04;;;;;;;11.93;3.77;;;10.50;99.90;;;;;;5078154;28;20187;-64
2021/12/28 09:25:33;;;;;;;10.73;5.07;;;10.50;99.90;;;;;;5080452;28;20187;-64
2021/12/28 09:28:02;;;;;;;22.27;12.87;;;10.50;99.90;;;;;;5083797;28;20227;-64
2021/12/28 09:30:31;;;;;;;6.47;5.87;;;10.60;99.90;;;;;;5072992;28;20267;-64
2021/12/28 09:33:00;;;;;;;7.43;4.33;;;10.60;99.90;;;;;;5076994;28;20218;-64
2021/12/28 09:35:29;;;;;;;3.93;3.57;;;10.60;99.90;;;;;;5076988;28;20207;-64
2021/12/28 09:37:57;;;;;;;4.53;3.00;;;10.60;99.90;;;;;;5076166;28;20222;-64
2021/12/28 09:40:30;;;;;;;5.47;3.77;;;10.60;99.90;;;;;;5074617;28;20195;-64
2021/12/28 09:42:58;;;;;;;4.47;3.17;;;10.60;99.90;;;;;;5079459;28;20287;-64
2021/12/28 09:45:27;;;;;;;4.67;4.13;;;10.60;99.90;;;;;;5078877;28;20249;-64
2021/12/28 09:47:57;;;;;;;3.23;2.93;;;10.60;99.90;;;;;;5068641;28;20207;-64
2021/12/28 09:50:26;;;;;;;4.03;3.23;;;10.60;99.90;;;;;;5072226;28;20698;-64
2021/12/28 09:52:55;;;;;;;3.43;3.13;;;10.60;99.90;;;;;;5074685;28;20654;-63
2021/12/28 09:55:30;;;;;;;3.10;2.63;;;10.50;99.90;;;;;;5077266;28;20201;-64
2021/12/28 09:57:59;;;;;;;3.07;2.23;;;10.50;99.90;;;;;;5078305;28;20199;-64
2021/12/28 10:00:28;;;;;;;2.40;2.30;;;10.50;99.90;;;;;;5070111;28;20211;-63
2021/12/28 10:03:14;;;;;;;3.60;3.30;;;10.50;99.90;;;;;;5077415;28;20729;-64
2021/12/28 10:05:43;;;;;;;2.13;2.03;;;10.50;99.90;;;;;;5073957;28;20210;-64
2021/12/28 10:08:13;;;;;;;5.23;4.10;;;10.50;99.90;;;;;;5072099;28;20196;-64
2021/12/28 10:10:49;;;;;;;3.37;2.37;;;10.50;99.90;;;;;;5065950;28;20207;-65
2021/12/28 10:13:20;;;;;;;5.97;3.10;;;10.50;99.90;;;;;;5070214;28;20254;-64
2021/12/28 10:15:50;;;;;;;14.57;3.20;;;10.50;99.90;;;;;;5067839;28;20236;-64
2021/12/28 10:18:19;;;;;;;9.10;3.20;;;10.40;99.90;;;;;;5071223;28;20204;-64
2021/12/28 10:20:50;;;;;;;15.63;3.70;;;10.30;99.90;;;;;;5068469;28;20737;-63
2021/12/28 10:23:20;;;;;;;31.87;4.77;;;10.30;99.90;;;;;;5070918;28;20296;-63
2021/12/28 10:25:53;;;;;;;27.83;3.70;;;10.20;99.90;;;;;;5071667;28;20195;-63
2021/12/28 10:28:23;;;;;;;26.70;3.80;;;10.20;99.90;;;;;;5070650;28;20325;-63
2021/12/28 10:30:55;;;;;;;29.97;4.17;;;10.20;99.90;;;;;;5071073;28;20219;-64
2021/12/28 10:33:25;;;;;;;37.07;5.03;;;10.20;99.90;;;;;;5074639;28;20287;-63
2021/12/28 10:35:59;;;;;;;33.63;5.20;;;10.20;99.90;;;;;;5070724;28;20214;-64
2021/12/28 10:38:31;;;;;;;43.60;5.93;;;10.10;99.90;;;;;;5089774;28;20200;-63
2021/12/28 10:41:07;;;;;;;39.07;5.87;;;10.20;99.90;;;;;;5070887;28;20189;-64
2021/12/28 10:43:38;;;;;;;50.63;5.83;;;10.40;99.90;;;;;;5069455;28;20372;-63
2021/12/28 10:46:08;;;;;;;46.30;6.43;;;10.50;99.90;;;;;;5076034;28;20279;-64
2021/12/28 10:48:39;;;;;;;42.00;6.77;;;10.60;99.90;;;;;;5075559;28;20618;-64
2021/12/28 10:51:12;;;;;;;54.33;6.87;;;10.60;99.90;;;;;;5069385;28;20286;-64
2021/12/28 10:53:55;;;;;;;42.40;7.40;;;10.70;99.90;;;;;;5073012;28;20273;-64
2021/12/28 10:56:26;;;;;;;39.10;6.97;;;10.80;99.90;;;;;;5076927;28;20200;-64
2021/12/28 10:58:55;;;;;;;33.07;6.30;;;10.90;99.90;;;;;;5079369;28;20809;-65
2021/12/28 11:01:24;;;;;;;38.63;6.20;;;10.90;99.90;;;;;;5068780;28;20230;-63
2021/12/28 11:03:55;;;;;;;47.67;6.40;;;10.80;99.90;;;;;;5073975;28;20345;-63
2021/12/28 11:06:28;;;;;;;38.20;7.00;;;10.70;99.90;;;;;;5073381;28;20199;-63
2021/12/28 11:08:58;;;;;;;47.73;6.73;;;10.70;99.90;;;;;;5071077;28;20538;-63
2021/12/28 11:11:30;;;;;;;43.93;6.53;;;10.60;99.90;;;;;;5074944;28;20187;-63
2021/12/28 11:14:00;;;;;;;33.13;6.87;;;10.50;99.90;;;;;;5070321;28;20313;-64
2021/12/28 11:16:31;;;;;;;52.70;7.30;;;10.50;99.90;;;;;;5068787;28;20700;-63
2021/12/28 11:19:01;;;;;;;49.07;7.80;;;10.50;99.90;;;;;;5071284;28;20192;-63
2021/12/28 11:21:32;;;;;;;41.80;8.13;;;10.60;99.90;;;;;;5073131;28;20219;-63
2021/12/28 11:24:04;;;;;;;70.40;16.50;;;10.60;99.90;;;;;;5072658;28;20195;-64
2021/12/28 11:26:37;;;;;;;49.03;8.07;;;10.70;99.90;;;;;;5075188;28;20274;-63
2021/12/28 11:29:08;;;;;;;48.60;8.93;;;10.60;99.90;;;;;;5074765;28;20554;-64
2021/12/28 11:31:38;;;;;;;46.00;8.67;;;10.60;99.90;;;;;;5074260;28;20206;-64
2021/12/28 11:34:11;;;;;;;47.83;6.90;;;10.70;99.90;;;;;;5072185;28;20231;-63
2021/12/28 11:36:43;;;;;;;39.13;5.90;;;10.90;99.90;;;;;;5070148;28;20191;-64
2021/12/28 11:39:15;;;;;;;43.80;6.50;;;11.10;99.90;;;;;;5071008;28;20200;-64
2021/12/28 11:41:48;;;;;;;38.23;5.90;;;11.30;99.90;;;;;;5070541;28;20196;-64
2021/12/28 11:44:19;;;;;;;36.20;6.53;;;11.50;99.90;;;;;;5072913;28;20227;-64
2021/12/28 11:46:48;;;;;;;30.23;5.60;;;11.50;99.90;;;;;;5070443;28;20198;-64
2021/12/28 11:49:18;;;;;;;34.10;6.67;;;11.50;99.90;;;;;;5077412;28;20196;-64
2021/12/28 11:51:49;;;;;;;39.87;6.30;;;11.50;99.90;;;;;;5075360;28;20200;-64
2021/12/28 11:54:18;;;;;;;34.93;5.03;;;11.40;99.90;;;;;;5077401;28;20756;-64
2021/12/28 11:56:57;;;;;;;27.73;4.83;;;11.30;99.90;;;;;;5073334;28;20553;-64
2021/12/28 11:59:28;;;;;;;34.50;8.63;;;11.30;99.90;;;;;;5077558;28;20215;-64
2021/12/28 12:02:01;;;;;;;38.27;8.93;;;11.20;99.90;;;;;;5072687;28;20187;-63
2021/12/28 12:04:58;;;;;;;43.13;6.83;;;11.30;99.90;;;;;;5064909;28;20180;-64
2021/12/28 12:07:31;;;;;;;34.40;6.43;;;11.60;99.90;;;;;;5074079;28;20195;-63
2021/12/28 12:10:08;;;;;;;32.57;6.23;;;11.70;99.90;;;;;;5075404;28;20188;-64
2021/12/28 12:12:53;;;;;;;38.60;6.00;;;11.60;99.90;;;;;;5079269;28;20196;-64
2021/12/28 12:15:25;;;;;;;28.27;5.37;;;11.50;99.90;;;;;;5084245;28;20238;-63
2021/12/28 12:18:00;;;;;;;27.73;7.57;;;11.50;99.90;;;;;;5069934;28;20196;-64
2021/12/28 12:20:33;;;;;;;29.80;5.70;;;11.50;99.90;;;;;;5070722;28;20244;-64
2021/12/28 12:23:21;;;;;;;30.77;5.47;;;11.50;99.90;;;;;;5071456;28;20425;-64
2021/12/28 12:26:08;;;;;;;32.60;6.63;;;11.50;99.90;;;;;;5071612;28;20218;-63
2021/12/28 12:28:48;;;;;;;29.63;5.17;;;11.50;99.90;;;;;;5070304;28;20191;-64
2021/12/28 12:31:36;;;;;;;28.97;5.50;;;11.50;99.90;;;;;;5069199;28;20723;-64
2021/12/28 12:34:26;;;;;;;23.40;5.43;;;11.40;99.90;;;;;;5073629;28;20208;-63
2021/12/28 12:36:54;;;;;;;31.07;6.03;;;11.30;99.90;;;;;;5075152;28;21012;-63
2021/12/28 12:39:24;;;;;;;30.70;5.50;;;11.10;99.90;;;;;;5077728;28;20191;-63
2021/12/28 12:41:55;;;;;;;29.97;5.37;;;10.70;99.90;;;;;;5076397;28;20203;-63
2021/12/28 12:44:27;;;;;;;32.77;5.37;;;10.50;99.90;;;;;;5080248;28;20278;-63
2021/12/28 12:47:06;;;;;;;26.63;5.23;;;10.20;99.90;;;;;;5074533;28;20716;-63
2021/12/28 12:49:36;;;;;;;35.00;6.00;;;10.00;99.90;;;;;;5083111;28;20191;-63
2021/12/28 12:52:13;;;;;;;32.13;4.90;;;9.80;99.90;;;;;;5077834;28;20294;-63
2021/12/28 12:54:45;;;;;;;27.27;5.67;;;9.60;99.90;;;;;;5085400;28;20601;-63
2021/12/28 12:57:20;;;;;;;27.20;4.37;;;9.50;99.90;;;;;;5081033;28;20192;-63
2021/12/28 12:59:56;;;;;;;23.57;5.67;;;9.40;99.90;;;;;;5075952;28;20696;-63